createdAt,value
2024-01-12T00:00:58.375Z,527.00
2024-01-12T00:01:58.467Z,528.00
2024-01-12T00:02:58.554Z,528.00
2024-01-12T00:03:58.604Z,526.00
2024-01-12T00:04:58.748Z,524.00
2024-01-12T00:05:58.885Z,526.00
2024-01-12T00:06:58.810Z,528.00
2024-01-12T00:07:58.849Z,526.00
2024-01-12T00:08:58.989Z,527.00
2024-01-12T00:09:58.932Z,525.00
2024-01-12T00:10:58.985Z,523.00
2024-01-12T00:11:59.129Z,523.00
2024-01-12T00:12:59.118Z,522.00
2024-01-12T00:13:59.158Z,521.00
2024-01-12T00:14:59.345Z,522.00
2024-01-12T00:15:59.260Z,522.00
2024-01-12T00:16:59.362Z,522.00
2024-01-12T00:17:59.482Z,524.00
2024-01-12T00:18:59.504Z,522.00
2024-01-12T00:19:59.536Z,520.00
2024-01-12T00:20:59.657Z,522.00
2024-01-12T00:21:59.660Z,522.00
2024-01-12T00:22:59.709Z,526.00
2024-01-12T00:23:59.857Z,528.00
2024-01-12T00:24:59.869Z,529.00
2024-01-12T00:25:59.927Z,525.00
2024-01-12T00:26:59.990Z,527.00
2024-01-12T00:27:59.999Z,523.00
2024-01-12T00:29:00.027Z,523.00
2024-01-12T00:30:00.155Z,524.00
2024-01-12T00:31:00.398Z,525.00
2024-01-12T00:32:00.194Z,526.00
2024-01-12T00:33:00.377Z,528.00
2024-01-12T00:34:00.371Z,527.00
2024-01-12T00:35:00.355Z,530.00
2024-01-12T00:36:00.419Z,530.00
2024-01-12T00:37:00.460Z,531.00
2024-01-12T00:38:00.495Z,529.00
2024-01-12T00:39:00.590Z,528.00
2024-01-12T00:40:00.622Z,528.00
2024-01-12T00:41:00.655Z,528.00
2024-01-12T00:42:00.760Z,526.00
2024-01-12T00:43:00.804Z,527.00
2024-01-12T00:44:00.859Z,524.00
2024-01-12T00:45:00.937Z,525.00
2024-01-12T00:46:00.935Z,526.00
2024-01-12T00:47:00.960Z,526.00
2024-01-12T00:48:01.137Z,529.00
2024-01-12T00:49:01.223Z,529.00
2024-01-12T00:50:01.179Z,529.00
2024-01-12T00:51:01.293Z,529.00
2024-01-12T00:52:01.278Z,528.00
2024-01-12T00:53:01.290Z,527.00
2024-01-12T00:54:01.415Z,528.00
2024-01-12T00:55:01.415Z,531.00
2024-01-12T00:56:01.422Z,531.00
2024-01-12T00:57:01.537Z,529.00
2024-01-12T00:58:01.571Z,526.00
2024-01-12T00:59:01.596Z,528.00
2024-01-12T01:00:01.718Z,531.00
2024-01-12T01:01:01.848Z,531.00
2024-01-12T01:02:01.750Z,531.00
2024-01-12T01:03:01.838Z,531.00
2024-01-12T01:04:01.903Z,529.00
2024-01-12T01:05:01.920Z,529.00
2024-01-12T01:06:02.129Z,526.00
2024-01-12T01:07:02.109Z,525.00
2024-01-12T01:08:02.088Z,523.00
2024-01-12T01:09:02.185Z,525.00
2024-01-12T01:10:02.226Z,526.00
2024-01-12T01:11:02.281Z,524.00
2024-01-12T01:12:02.366Z,523.00
2024-01-12T01:13:02.321Z,524.00
2024-01-12T01:14:02.422Z,526.00
2024-01-12T01:15:02.532Z,527.00
2024-01-12T01:16:02.486Z,527.00
2024-01-12T01:17:02.508Z,527.00
2024-01-12T01:18:02.706Z,526.00
2024-01-12T01:19:02.875Z,527.00
2024-01-12T01:20:02.824Z,525.00
2024-01-12T01:21:02.821Z,525.00
2024-01-12T01:22:02.773Z,525.00
2024-01-12T01:23:02.787Z,526.00
2024-01-12T01:24:02.875Z,525.00
2024-01-12T01:25:02.882Z,526.00
2024-01-12T01:26:02.957Z,527.00
2024-01-12T01:27:03.108Z,529.00
2024-01-12T01:28:03.104Z,531.00
2024-01-12T01:29:03.047Z,529.00
2024-01-12T01:30:03.187Z,529.00
2024-01-12T01:31:03.306Z,530.00
2024-01-12T01:32:03.197Z,532.00
2024-01-12T01:33:03.327Z,533.00
2024-01-12T01:34:03.454Z,532.00
2024-01-12T01:35:03.303Z,529.00
2024-01-12T01:36:03.390Z,529.00
2024-01-12T01:37:03.395Z,529.00
2024-01-12T01:38:03.436Z,530.00
2024-01-12T01:39:03.442Z,531.00
2024-01-12T01:40:03.484Z,530.00
2024-01-12T01:41:03.549Z,530.00
2024-01-12T01:42:03.639Z,529.00
2024-01-12T01:43:03.607Z,529.00
2024-01-12T01:44:03.626Z,530.00
2024-01-12T01:45:03.735Z,530.00
2024-01-12T01:46:03.725Z,527.00
2024-01-12T01:47:03.709Z,529.00
2024-01-12T01:48:03.785Z,530.00
2024-01-12T01:49:03.816Z,529.00
2024-01-12T01:50:03.838Z,531.00
2024-01-12T01:51:03.938Z,531.00
2024-01-12T01:52:03.891Z,529.00
2024-01-12T01:53:03.930Z,530.00
2024-01-12T01:54:03.993Z,529.00
2024-01-12T01:55:03.972Z,530.00
2024-01-12T01:56:04.014Z,529.00
2024-01-12T01:57:06.150Z,529.00
2024-01-12T01:58:04.072Z,527.00
2024-01-12T01:59:04.113Z,526.00
2024-01-12T02:00:04.215Z,528.00
2024-01-12T02:01:04.138Z,526.00
2024-01-12T02:02:04.189Z,526.00
2024-01-12T02:03:04.471Z,529.00
2024-01-12T02:04:04.310Z,529.00
2024-01-12T02:05:04.327Z,529.00
2024-01-12T02:06:04.370Z,528.00
2024-01-12T02:07:04.333Z,525.00
2024-01-12T02:08:04.376Z,523.00
2024-01-12T02:09:04.560Z,522.00
2024-01-12T02:10:04.440Z,524.00
2024-01-12T02:11:04.454Z,526.00
2024-01-12T02:12:04.501Z,526.00
2024-01-12T02:13:04.512Z,526.00
2024-01-12T02:14:04.547Z,524.00
2024-01-12T02:15:04.620Z,524.00
2024-01-12T02:16:06.829Z,522.00
2024-01-12T02:17:04.602Z,522.00
2024-01-12T02:18:04.651Z,522.00
2024-01-12T02:19:04.723Z,522.00
2024-01-12T02:20:04.616Z,521.00
2024-01-12T02:21:04.718Z,520.00
2024-01-12T02:22:04.618Z,520.00
2024-01-12T02:23:04.599Z,519.00
2024-01-12T02:24:04.603Z,518.00
2024-01-12T02:25:04.641Z,518.00
2024-01-12T02:26:04.619Z,519.00
2024-01-12T02:27:04.616Z,520.00
2024-01-12T02:28:04.637Z,521.00
2024-01-12T02:29:04.739Z,520.00
2024-01-12T02:30:04.667Z,521.00
2024-01-12T02:31:04.739Z,522.00
2024-01-12T02:32:04.658Z,522.00
2024-01-12T02:33:04.774Z,522.00
2024-01-12T02:34:04.732Z,524.00
2024-01-12T02:35:04.631Z,526.00
2024-01-12T02:36:04.663Z,524.00
2024-01-12T02:37:04.626Z,521.00
2024-01-12T02:38:04.642Z,520.00
2024-01-12T02:39:04.657Z,520.00
2024-01-12T02:40:04.643Z,523.00
2024-01-12T02:41:04.629Z,525.00
2024-01-12T02:42:04.604Z,525.00
2024-01-12T02:43:04.640Z,527.00
2024-01-12T02:44:04.611Z,527.00
2024-01-12T02:45:04.644Z,528.00
2024-01-12T02:46:04.603Z,528.00
2024-01-12T02:47:04.650Z,527.00
2024-01-12T02:48:04.676Z,525.00
2024-01-12T02:49:04.646Z,525.00
2024-01-12T02:50:04.617Z,526.00
2024-01-12T02:51:04.695Z,525.00
2024-01-12T02:52:04.603Z,524.00
2024-01-12T02:53:04.628Z,524.00
2024-01-12T02:54:04.620Z,522.00
2024-01-12T02:55:04.614Z,521.00
2024-01-12T02:56:04.638Z,521.00
2024-01-12T02:57:04.705Z,521.00
2024-01-12T02:58:04.633Z,520.00
2024-01-12T02:59:04.648Z,520.00
2024-01-12T03:00:07.609Z,523.00
2024-01-12T03:01:04.669Z,521.00
2024-01-12T03:02:04.649Z,520.00
2024-01-12T03:03:04.750Z,519.00
2024-01-12T03:04:04.743Z,520.00
2024-01-12T03:05:04.728Z,519.00
2024-01-12T03:06:04.732Z,521.00
2024-01-12T03:07:04.685Z,522.00
2024-01-12T03:08:04.641Z,524.00
2024-01-12T03:09:04.689Z,522.00
2024-01-12T03:10:04.661Z,521.00
2024-01-12T03:11:04.657Z,522.00
2024-01-12T03:12:04.738Z,518.00
2024-01-12T03:13:04.704Z,517.00
2024-01-12T03:14:04.677Z,516.00
2024-01-12T03:15:04.730Z,515.00
2024-01-12T03:16:04.664Z,515.00
2024-01-12T03:17:04.682Z,514.00
2024-01-12T03:18:05.714Z,514.00
2024-01-12T03:19:04.793Z,516.00
2024-01-12T03:20:04.675Z,519.00
2024-01-12T03:21:04.783Z,519.00
2024-01-12T03:22:04.687Z,520.00
2024-01-12T03:23:04.665Z,517.00
2024-01-12T03:24:04.725Z,517.00
2024-01-12T03:25:04.674Z,519.00
2024-01-12T03:26:04.705Z,522.00
2024-01-12T03:27:04.745Z,524.00
2024-01-12T03:28:04.671Z,521.00
2024-01-12T03:29:04.680Z,523.00
2024-01-12T03:30:04.841Z,524.00
2024-01-12T03:31:04.732Z,523.00
2024-01-12T03:32:04.667Z,522.00
2024-01-12T03:33:04.707Z,521.00
2024-01-12T03:34:05.021Z,521.00
2024-01-12T03:35:04.842Z,521.00
2024-01-12T03:36:04.740Z,521.00
2024-01-12T03:37:04.717Z,520.00
2024-01-12T03:38:04.700Z,519.00
2024-01-12T03:39:04.754Z,520.00
2024-01-12T03:40:04.729Z,518.00
2024-01-12T03:41:04.709Z,516.00
2024-01-12T03:42:04.809Z,513.00
2024-01-12T03:43:04.728Z,513.00
2024-01-12T03:44:04.715Z,512.00
2024-01-12T03:45:04.796Z,513.00
2024-01-12T03:46:04.693Z,517.00
2024-01-12T03:47:04.732Z,518.00
2024-01-12T03:48:04.883Z,518.00
2024-01-12T03:49:04.815Z,519.00
2024-01-12T03:50:04.734Z,520.00
2024-01-12T03:51:04.782Z,522.00
2024-01-12T03:52:14.919Z,523.00
2024-01-12T03:53:05.794Z,520.00
2024-01-12T03:54:04.760Z,521.00
2024-01-12T03:55:04.750Z,520.00
2024-01-12T03:56:04.730Z,524.00
2024-01-12T03:57:04.766Z,521.00
2024-01-12T03:58:04.736Z,520.00
2024-01-12T03:59:04.747Z,519.00
2024-01-12T04:00:04.805Z,520.00
2024-01-12T04:01:04.782Z,518.00
2024-01-12T04:02:04.738Z,517.00
2024-01-12T04:03:04.890Z,518.00
2024-01-12T04:04:04.826Z,518.00
2024-01-12T04:05:04.774Z,518.00
2024-01-12T04:06:04.760Z,516.00
2024-01-12T04:07:04.826Z,516.00
2024-01-12T04:08:04.750Z,516.00
2024-01-12T04:09:04.818Z,515.00
2024-01-12T04:10:04.755Z,513.00
2024-01-12T04:11:04.790Z,512.00
2024-01-12T04:12:04.959Z,516.00
2024-01-12T04:13:04.767Z,517.00
2024-01-12T04:14:04.772Z,516.00
2024-01-12T04:15:04.798Z,515.00
2024-01-12T04:16:04.750Z,514.00
2024-01-12T04:17:04.737Z,513.00
2024-01-12T04:18:04.922Z,513.00
2024-01-12T04:19:04.816Z,513.00
2024-01-12T04:20:04.762Z,510.00
2024-01-12T04:21:04.864Z,507.00
2024-01-12T04:22:04.780Z,511.00
2024-01-12T04:23:04.802Z,512.00
2024-01-12T04:24:04.832Z,512.00
2024-01-12T04:25:04.839Z,509.00
2024-01-12T04:26:04.874Z,511.00
2024-01-12T04:27:04.918Z,510.00
2024-01-12T04:28:04.865Z,509.00
2024-01-12T04:29:04.882Z,508.00
2024-01-12T04:30:04.949Z,509.00
2024-01-12T04:31:04.988Z,508.00
2024-01-12T04:32:04.886Z,508.00
2024-01-12T04:33:05.057Z,508.00
2024-01-12T04:34:12.429Z,506.00
2024-01-12T04:35:12.394Z,501.00
2024-01-12T04:36:12.377Z,501.00
2024-01-12T04:37:12.347Z,500.00
2024-01-12T04:38:12.325Z,502.00
2024-01-12T04:39:12.361Z,507.00
2024-01-12T04:40:12.352Z,511.00
2024-01-12T04:41:12.359Z,513.00
2024-01-12T04:42:12.344Z,513.00
2024-01-12T04:43:12.386Z,513.00
2024-01-12T04:44:12.377Z,513.00
2024-01-12T04:45:12.364Z,514.00
2024-01-12T04:46:12.370Z,514.00
2024-01-12T04:47:12.357Z,513.00
2024-01-12T04:48:12.561Z,512.00
2024-01-12T04:49:12.558Z,512.00
2024-01-12T04:50:12.413Z,512.00
2024-01-12T04:51:12.375Z,512.00
2024-01-12T04:52:12.385Z,513.00
2024-01-12T04:53:12.374Z,513.00
2024-01-12T04:54:12.452Z,513.00
2024-01-12T04:55:12.377Z,512.00
2024-01-12T04:56:12.379Z,512.00
2024-01-12T04:57:12.427Z,512.00
2024-01-12T04:58:12.366Z,516.00
2024-01-12T04:59:12.388Z,514.00
2024-01-12T05:00:12.384Z,513.00
2024-01-12T05:01:12.419Z,514.00
2024-01-12T05:02:12.430Z,516.00
2024-01-12T05:03:14.607Z,516.00
2024-01-12T05:04:12.486Z,512.00
2024-01-12T05:05:12.429Z,515.00
2024-01-12T05:06:12.488Z,516.00
2024-01-12T05:07:12.463Z,515.00
2024-01-12T05:08:12.458Z,514.00
2024-01-12T05:09:12.536Z,516.00
2024-01-12T05:10:12.491Z,516.00
2024-01-12T05:11:12.480Z,513.00
2024-01-12T05:12:12.503Z,512.00
2024-01-12T05:13:12.534Z,512.00
2024-01-12T05:14:12.587Z,513.00
2024-01-12T05:15:12.704Z,514.00
2024-01-12T05:16:12.574Z,514.00
2024-01-12T05:17:12.633Z,516.00
2024-01-12T05:18:12.734Z,516.00
2024-01-12T05:19:12.895Z,514.00
2024-01-12T05:20:12.656Z,513.00
2024-01-12T05:21:12.757Z,514.00
2024-01-12T05:22:12.748Z,512.00
2024-01-12T05:23:12.764Z,513.00
2024-01-12T05:24:12.791Z,509.00
2024-01-12T05:25:12.835Z,507.00
2024-01-12T05:26:12.840Z,508.00
2024-01-12T05:27:12.899Z,508.00
2024-01-12T05:28:12.885Z,506.00
2024-01-12T05:29:12.918Z,505.00
2024-01-12T05:30:13.129Z,504.00
2024-01-12T05:31:13.011Z,506.00
2024-01-12T05:32:12.999Z,504.00
2024-01-12T05:33:13.039Z,505.00
2024-01-12T05:34:13.189Z,504.00
2024-01-12T05:35:15.636Z,507.00
2024-01-12T05:36:13.137Z,508.00
2024-01-12T05:37:13.061Z,504.00
2024-01-12T05:38:13.085Z,503.00
2024-01-12T05:39:13.080Z,505.00
2024-01-12T05:40:13.099Z,504.00
2024-01-12T05:41:13.075Z,502.00
2024-01-12T05:42:13.097Z,504.00
2024-01-12T05:43:13.069Z,504.00
2024-01-12T05:44:13.075Z,504.00
2024-01-12T05:45:13.083Z,504.00
2024-01-12T05:46:13.093Z,502.00
2024-01-12T05:47:13.054Z,500.00
2024-01-12T05:48:13.191Z,501.00
2024-01-12T05:49:13.215Z,500.00
2024-01-12T05:50:13.069Z,502.00
2024-01-12T05:51:13.115Z,501.00
2024-01-12T05:52:13.065Z,504.00
2024-01-12T05:53:13.074Z,502.00
2024-01-12T05:54:13.116Z,503.00
2024-01-12T05:55:13.117Z,502.00
2024-01-12T05:56:13.146Z,502.00
2024-01-12T05:57:13.088Z,503.00
2024-01-12T05:58:13.097Z,503.00
2024-01-12T05:59:13.108Z,503.00
2024-01-12T06:00:13.178Z,503.00
2024-01-12T06:01:35.622Z,506.00
2024-01-12T06:02:13.086Z,505.00
2024-01-12T06:03:13.178Z,504.00
2024-01-12T06:04:13.151Z,505.00
2024-01-12T06:05:13.184Z,505.00
2024-01-12T06:06:14.163Z,506.00
2024-01-12T06:07:13.093Z,507.00
2024-01-12T06:08:14.281Z,509.00
2024-01-12T06:09:13.107Z,508.00
2024-01-12T06:10:13.161Z,507.00
2024-01-12T06:12:13.153Z,505.00
2024-01-12T06:13:13.122Z,504.00
2024-01-12T06:14:13.142Z,507.00
2024-01-12T06:15:13.219Z,509.00
2024-01-12T06:16:13.135Z,509.00
2024-01-12T06:17:13.128Z,508.00
2024-01-12T06:18:13.228Z,507.00
2024-01-12T06:19:13.241Z,505.00
2024-01-12T06:20:13.170Z,506.00
2024-01-12T06:21:13.245Z,507.00
2024-01-12T06:22:13.131Z,509.00
2024-01-12T06:23:13.160Z,508.00
2024-01-12T06:24:13.156Z,507.00
2024-01-12T06:25:13.169Z,506.00
2024-01-12T06:26:13.144Z,506.00
2024-01-12T06:27:13.275Z,504.00
2024-01-12T06:28:13.306Z,503.00
2024-01-12T06:29:13.282Z,504.00
2024-01-12T06:30:13.556Z,508.00
2024-01-12T06:31:13.391Z,510.00
2024-01-12T06:32:14.296Z,509.00
2024-01-12T06:33:13.651Z,593.00
2024-01-12T06:34:13.532Z,611.00
2024-01-12T06:35:13.495Z,607.00
2024-01-12T06:36:13.620Z,587.00
2024-01-12T06:37:13.568Z,590.00
2024-01-12T06:38:13.724Z,598.00
2024-01-12T06:39:13.932Z,607.00
2024-01-12T06:40:14.024Z,611.00
2024-01-12T06:41:13.831Z,617.00
2024-01-12T06:42:13.937Z,632.00
2024-01-12T06:43:13.990Z,661.00
2024-01-12T06:44:14.009Z,679.00
2024-01-12T06:45:37.113Z,675.00
2024-01-12T06:46:14.083Z,674.00
2024-01-12T06:47:14.068Z,674.00
2024-01-12T06:48:14.203Z,670.00
2024-01-12T06:49:14.166Z,733.00
2024-01-12T06:50:14.560Z,732.00
2024-01-12T06:51:14.126Z,706.00
2024-01-12T06:52:14.076Z,693.00
2024-01-12T06:53:14.119Z,688.00
2024-01-12T06:55:14.550Z,737.00
2024-01-12T06:56:14.295Z,835.00
2024-01-12T06:57:14.282Z,878.00
2024-01-12T06:58:14.962Z,926.00
2024-01-12T06:59:14.352Z,776.00
2024-01-12T07:00:14.623Z,690.00
2024-01-12T07:01:14.478Z,696.00
2024-01-12T07:02:14.482Z,700.00
2024-01-12T07:03:14.769Z,697.00
2024-01-12T07:04:14.667Z,697.00
2024-01-12T07:05:14.668Z,688.00
2024-01-12T07:06:14.753Z,675.00
2024-01-12T07:07:15.660Z,667.00
2024-01-12T07:08:14.838Z,664.00
2024-01-12T07:09:14.780Z,665.00
2024-01-12T07:10:14.805Z,666.00
2024-01-12T07:11:14.812Z,670.00
2024-01-12T07:12:14.966Z,671.00
2024-01-12T07:13:14.914Z,678.00
2024-01-12T07:14:14.955Z,693.00
2024-01-12T07:15:14.991Z,801.00
2024-01-12T07:16:15.034Z,786.00
2024-01-12T07:17:15.150Z,783.00
2024-01-12T07:18:15.228Z,782.00
2024-01-12T07:19:15.487Z,781.00
2024-01-12T07:20:15.315Z,778.00
2024-01-12T07:21:15.255Z,764.00
2024-01-12T07:22:15.261Z,755.00
2024-01-12T07:23:15.309Z,759.00
2024-01-12T07:24:15.323Z,766.00
2024-01-12T07:25:15.353Z,770.00
2024-01-12T07:26:15.493Z,772.00
2024-01-12T07:27:15.481Z,776.00
2024-01-12T07:28:15.377Z,811.00
2024-01-12T07:29:15.564Z,813.00
2024-01-12T07:30:15.610Z,775.00
2024-01-12T07:31:15.532Z,772.00
2024-01-12T07:32:15.483Z,776.00
2024-01-12T07:33:15.693Z,780.00
2024-01-12T07:34:15.663Z,789.00
2024-01-12T07:35:15.716Z,842.00
2024-01-12T07:36:15.534Z,848.00
2024-01-12T07:37:15.579Z,936.00
2024-01-12T07:38:15.561Z,911.00
2024-01-12T07:39:15.585Z,899.00
2024-01-12T07:40:15.565Z,905.00
2024-01-12T07:41:16.157Z,909.00
2024-01-12T07:42:15.626Z,943.00
2024-01-12T07:43:15.674Z,962.00
2024-01-12T07:44:15.662Z,848.00
2024-01-12T07:45:15.651Z,831.00
2024-01-12T07:46:16.068Z,822.00
2024-01-12T07:47:15.857Z,811.00
2024-01-12T07:48:15.928Z,808.00
2024-01-12T07:49:15.939Z,807.00
2024-01-12T07:50:15.999Z,806.00
2024-01-12T07:51:16.061Z,816.00
2024-01-12T07:52:19.198Z,919.00
2024-01-12T07:53:17.019Z,1009.00
2024-01-12T07:54:16.012Z,1054.00
2024-01-12T07:55:16.071Z,1081.00
2024-01-12T07:56:16.109Z,1164.00
2024-01-12T07:57:16.032Z,1169.00
2024-01-12T07:58:16.064Z,1172.00
2024-01-12T07:59:16.057Z,1177.00
2024-01-12T08:00:16.161Z,1180.00
2024-01-12T08:01:16.046Z,1184.00
2024-01-12T08:02:16.086Z,1190.00
2024-01-12T08:03:16.137Z,1197.00
2024-01-12T08:04:16.085Z,1202.00
2024-01-12T08:05:16.118Z,1210.00
2024-01-12T08:06:16.077Z,1224.00
2024-01-12T08:07:16.060Z,1233.00
2024-01-12T08:08:16.076Z,1235.00
2024-01-12T08:09:16.053Z,1236.00
2024-01-12T08:10:16.044Z,1238.00
2024-01-12T08:11:23.684Z,1248.00
2024-01-12T08:12:17.110Z,1258.00
2024-01-12T08:13:17.556Z,1268.00
2024-01-12T08:14:16.064Z,1282.00
2024-01-12T08:15:16.093Z,1293.00
2024-01-12T08:16:16.069Z,1304.00
2024-01-12T08:17:16.124Z,1314.00
2024-01-12T08:18:16.328Z,1324.00
2024-01-12T08:19:16.409Z,1130.00
2024-01-12T08:20:16.365Z,1082.00
2024-01-12T08:21:16.307Z,1045.00
2024-01-12T08:22:16.361Z,1031.00
2024-01-12T08:23:16.465Z,963.00
2024-01-12T08:24:16.389Z,953.00
2024-01-12T08:25:16.430Z,966.00
2024-01-12T08:26:16.755Z,974.00
2024-01-12T08:27:19.342Z,1012.00
2024-01-12T08:28:16.470Z,1085.00
2024-01-12T08:29:16.654Z,1114.00
2024-01-12T08:30:16.604Z,1126.00
2024-01-12T08:31:16.581Z,1145.00
2024-01-12T08:32:16.590Z,823.00
2024-01-12T08:33:16.659Z,770.00
2024-01-12T08:34:16.636Z,773.00
2024-01-12T08:35:16.607Z,784.00
2024-01-12T08:36:16.705Z,817.00
2024-01-12T08:37:16.480Z,881.00
2024-01-12T08:38:16.535Z,903.00
2024-01-12T08:39:16.463Z,933.00
2024-01-12T08:40:16.506Z,952.00
2024-01-12T08:41:16.675Z,1027.00
2024-01-12T08:42:16.483Z,1030.00
2024-01-12T08:43:16.538Z,939.00
2024-01-12T08:44:16.624Z,913.00
2024-01-12T08:45:16.506Z,895.00
2024-01-12T08:46:17.506Z,811.00
2024-01-12T08:47:16.611Z,792.00
2024-01-12T08:48:16.636Z,803.00
2024-01-12T08:49:16.632Z,807.00
2024-01-12T08:50:17.580Z,774.00
2024-01-12T08:51:16.713Z,767.00
2024-01-12T08:52:16.502Z,766.00
2024-01-12T08:53:16.821Z,763.00
2024-01-12T08:54:16.491Z,765.00
2024-01-12T08:55:16.548Z,831.00
2024-01-12T08:56:16.530Z,869.00
2024-01-12T08:57:16.599Z,898.00
2024-01-12T08:58:16.539Z,896.00
2024-01-12T08:59:16.590Z,780.00
2024-01-12T09:00:16.672Z,721.00
2024-01-12T09:01:16.696Z,669.00
2024-01-12T09:02:16.732Z,688.00
2024-01-12T09:03:16.787Z,686.00
2024-01-12T09:04:16.851Z,692.00
2024-01-12T09:05:16.914Z,803.00
2024-01-12T09:06:16.916Z,817.00
2024-01-12T09:07:17.068Z,853.00
2024-01-12T09:08:16.871Z,911.00
2024-01-12T09:09:16.848Z,931.00
2024-01-12T09:10:16.897Z,932.00
2024-01-12T09:11:17.165Z,930.00
2024-01-12T09:12:17.006Z,946.00
2024-01-12T09:13:17.057Z,967.00
2024-01-12T09:14:17.119Z,979.00
2024-01-12T09:15:17.136Z,989.00
2024-01-12T09:16:17.211Z,1003.00
2024-01-12T09:17:17.279Z,1020.00
2024-01-12T09:18:17.418Z,1028.00
2024-01-12T09:19:17.451Z,1042.00
2024-01-12T09:20:17.432Z,1070.00
2024-01-12T09:21:17.851Z,1080.00
2024-01-12T09:22:17.465Z,1086.00
2024-01-12T09:23:17.560Z,1094.00
2024-01-12T09:24:17.538Z,1105.00
2024-01-12T09:25:17.602Z,1109.00
2024-01-12T09:26:17.719Z,1114.00
2024-01-12T09:27:17.650Z,1121.00
2024-01-12T09:28:17.658Z,1132.00
2024-01-12T09:29:17.719Z,1142.00
2024-01-12T09:30:17.843Z,998.00
2024-01-12T09:31:18.196Z,813.00
2024-01-12T09:32:17.817Z,818.00
2024-01-12T09:33:18.027Z,811.00
2024-01-12T09:34:17.981Z,828.00
2024-01-12T09:35:19.631Z,897.00
2024-01-12T09:36:18.084Z,893.00
2024-01-12T09:37:18.017Z,888.00
2024-01-12T09:38:18.120Z,898.00
2024-01-12T09:39:18.178Z,862.00
2024-01-12T09:40:18.205Z,850.00
2024-01-12T09:41:18.319Z,843.00
2024-01-12T09:42:18.325Z,834.00
2024-01-12T09:43:18.383Z,821.00
2024-01-12T09:44:18.462Z,801.00
2024-01-12T09:45:22.338Z,849.00
2024-01-12T09:46:19.624Z,910.00
2024-01-12T09:47:18.566Z,911.00
2024-01-12T09:48:18.559Z,914.00
2024-01-12T09:49:18.577Z,924.00
2024-01-12T09:50:18.543Z,830.00
2024-01-12T09:51:18.587Z,844.00
2024-01-12T09:52:18.610Z,833.00
2024-01-12T09:53:18.521Z,825.00
2024-01-12T09:54:18.546Z,900.00
2024-01-12T09:55:18.503Z,973.00
2024-01-12T09:56:21.602Z,985.00
2024-01-12T09:57:18.718Z,1042.00
2024-01-12T09:58:18.522Z,1060.00
2024-01-12T09:59:18.535Z,1080.00
2024-01-12T10:00:18.582Z,1098.00
2024-01-12T10:01:18.561Z,1111.00
2024-01-12T10:02:19.172Z,1120.00
2024-01-12T10:03:18.606Z,1140.00
2024-01-12T10:04:18.567Z,1159.00
2024-01-12T10:05:18.550Z,1168.00
2024-01-12T10:06:18.579Z,1182.00
2024-01-12T10:07:18.564Z,1198.00
2024-01-12T10:08:18.512Z,1208.00
2024-01-12T10:09:18.604Z,1223.00
2024-01-12T10:10:18.525Z,1225.00
2024-01-12T10:11:18.513Z,982.00
2024-01-12T10:12:18.540Z,902.00
2024-01-12T10:13:18.525Z,1059.00
2024-01-12T10:14:18.550Z,1070.00
2024-01-12T10:15:18.600Z,1080.00
2024-01-12T10:16:18.521Z,1108.00
2024-01-12T10:17:18.562Z,1187.00
2024-01-12T10:18:18.693Z,1203.00
2024-01-12T10:19:18.637Z,1218.00
2024-01-12T10:20:18.597Z,1236.00
2024-01-12T10:21:19.219Z,1258.00
2024-01-12T10:22:18.599Z,1278.00
2024-01-12T10:23:18.697Z,1290.00
2024-01-12T10:24:18.762Z,1298.00
2024-01-12T10:25:18.728Z,1312.00
2024-01-12T10:26:18.834Z,1326.00
2024-01-12T10:27:18.920Z,1340.00
2024-01-12T10:28:18.893Z,1341.00
2024-01-12T10:29:18.990Z,1350.00
2024-01-12T10:30:19.178Z,1358.00
2024-01-12T10:31:19.152Z,1362.00
2024-01-12T10:32:19.143Z,1369.00
2024-01-12T10:33:19.334Z,1375.00
2024-01-12T10:34:19.372Z,1377.00
2024-01-12T10:35:19.379Z,1379.00
2024-01-12T10:36:19.369Z,1379.00
2024-01-12T10:37:19.408Z,1093.00
2024-01-12T10:38:19.490Z,860.00
2024-01-12T10:39:19.520Z,838.00
2024-01-12T10:40:19.552Z,879.00
2024-01-12T10:41:19.608Z,867.00
2024-01-12T10:42:19.737Z,858.00
2024-01-12T10:43:19.592Z,860.00
2024-01-12T10:44:19.735Z,849.00
2024-01-12T10:45:19.693Z,846.00
2024-01-12T10:46:19.737Z,851.00
2024-01-12T10:47:20.281Z,851.00
2024-01-12T10:48:19.855Z,847.00
2024-01-12T10:49:20.113Z,855.00
2024-01-12T10:50:19.851Z,867.00
2024-01-12T10:51:19.908Z,863.00
2024-01-12T10:52:21.011Z,846.00
2024-01-12T10:53:20.039Z,827.00
2024-01-12T10:54:20.035Z,775.00
2024-01-12T10:55:20.076Z,762.00
2024-01-12T10:56:20.145Z,757.00
2024-01-12T10:57:20.160Z,759.00
2024-01-12T10:58:20.213Z,769.00
2024-01-12T10:59:20.314Z,778.00
2024-01-12T11:00:20.371Z,786.00
2024-01-12T11:01:20.447Z,791.00
2024-01-12T11:02:20.411Z,801.00
2024-01-12T11:03:20.532Z,829.00
2024-01-12T11:04:20.514Z,844.00
2024-01-12T11:05:20.488Z,858.00
2024-01-12T11:06:20.789Z,896.00
2024-01-12T11:07:20.581Z,910.00
2024-01-12T11:08:20.587Z,923.00
2024-01-12T11:09:20.537Z,946.00
2024-01-12T11:10:20.577Z,979.00
2024-01-12T11:11:20.570Z,990.00
2024-01-12T11:12:20.612Z,1019.00
2024-01-12T11:13:20.668Z,1038.00
2024-01-12T11:14:20.723Z,1050.00
2024-01-12T11:15:20.799Z,1063.00
2024-01-12T11:16:20.774Z,1088.00
2024-01-12T11:17:20.875Z,1104.00
2024-01-12T11:18:21.102Z,1115.00
2024-01-12T11:19:21.043Z,1120.00
2024-01-12T11:20:21.136Z,1119.00
2024-01-12T11:21:21.139Z,1120.00
2024-01-12T11:22:21.092Z,1131.00
2024-01-12T11:23:21.699Z,1159.00
2024-01-12T11:24:21.255Z,1168.00
2024-01-12T11:25:21.568Z,1184.00
2024-01-12T11:26:21.385Z,1209.00
2024-01-12T11:27:21.456Z,1217.00
2024-01-12T11:28:21.483Z,1219.00
2024-01-12T11:29:21.543Z,1113.00
2024-01-12T11:30:21.814Z,1085.00
2024-01-12T11:31:21.627Z,953.00
2024-01-12T11:32:21.634Z,924.00
2024-01-12T11:33:21.823Z,925.00
2024-01-12T11:34:21.792Z,923.00
2024-01-12T11:35:21.985Z,927.00
2024-01-12T11:36:21.899Z,876.00
2024-01-12T11:37:21.781Z,849.00
2024-01-12T11:38:22.234Z,856.00
2024-01-12T11:39:21.867Z,920.00
2024-01-12T11:40:21.940Z,913.00
2024-01-12T11:41:22.001Z,902.00
2024-01-12T11:42:22.000Z,896.00
2024-01-12T11:43:22.165Z,919.00
2024-01-12T11:44:22.169Z,916.00
2024-01-12T11:45:22.247Z,915.00
2024-01-12T11:46:22.245Z,918.00
2024-01-12T11:47:22.350Z,889.00
2024-01-12T11:48:22.944Z,878.00
2024-01-12T11:49:22.451Z,881.00
2024-01-12T11:50:22.495Z,894.00
2024-01-12T11:51:22.495Z,873.00
2024-01-12T11:52:22.539Z,838.00
2024-01-12T11:53:22.695Z,823.00
2024-01-12T11:54:22.618Z,834.00
2024-01-12T11:55:22.718Z,834.00
2024-01-12T11:56:22.817Z,837.00
2024-01-12T11:57:22.901Z,836.00
2024-01-12T11:58:23.192Z,834.00
2024-01-12T11:59:22.915Z,831.00
2024-01-12T12:00:22.938Z,827.00
2024-01-12T12:01:23.011Z,822.00
2024-01-12T12:02:23.147Z,829.00
2024-01-12T12:03:23.164Z,829.00
2024-01-12T12:04:23.215Z,828.00
2024-01-12T12:05:24.554Z,826.00
2024-01-12T12:06:23.417Z,827.00
2024-01-12T12:07:23.339Z,823.00
2024-01-12T12:08:23.718Z,820.00
2024-01-12T12:09:23.447Z,819.00
2024-01-12T12:10:30.201Z,819.00
2024-01-12T12:11:24.542Z,818.00
2024-01-12T12:12:23.496Z,820.00
2024-01-12T12:13:24.178Z,814.00
2024-01-12T12:14:23.750Z,815.00
2024-01-12T12:15:23.513Z,809.00
2024-01-12T12:16:23.477Z,814.00
2024-01-12T12:17:23.519Z,807.00
2024-01-12T12:18:23.573Z,800.00
2024-01-12T12:19:25.886Z,801.00
2024-01-12T12:20:23.467Z,803.00
2024-01-12T12:21:23.516Z,771.00
2024-01-12T12:22:23.520Z,768.00
2024-01-12T12:23:23.516Z,774.00
2024-01-12T12:24:23.780Z,769.00
2024-01-12T12:25:23.488Z,760.00
2024-01-12T12:26:23.537Z,759.00
2024-01-12T12:27:23.496Z,757.00
2024-01-12T12:28:23.487Z,756.00